Time;durP1;ratioP1;P1;durP2;ratioP2;P2;SDS_P1;SDS_P2;PMS_P1;PMS_P2;Temp;Humidity;BMP_temperature;BMP_pressure;BME280_temperature;BME280_humidity;BME280_pressure;Samples;Min_cycle;Max_cycle;Signal;HPM_P1;HPM_P2
2022/10/24 00:01:47;;;;;;;7.18;4.45;;;;;;;;;;5137333;27;20348;-76
2022/10/24 00:04:37;;;;;;;8.15;4.72;;;;;;;;;;5139831;27;20015;-78
2022/10/24 00:07:23;;;;;;;6.07;4.63;;;;;;;;;;5141138;27;20361;-77
2022/10/24 00:10:10;;;;;;;7.68;4.15;;;;;;;;;;5139889;27;20023;-77
2022/10/24 00:12:56;;;;;;;7.70;4.65;;;;;;;;;;5127459;27;20023;-78
2022/10/24 00:15:46;;;;;;;8.32;4.57;;;;;;;;;;5135980;27;20034;-78
2022/10/24 00:18:32;;;;;;;7.38;4.75;;;;;;;;;;5120839;27;20030;-78
2022/10/24 00:21:17;;;;;;;5.75;4.32;;;;;;;;;;5136139;27;20098;-77
2022/10/24 00:24:03;;;;;;;8.75;5.03;;;;;;;;;;5121037;27;20028;-78
2022/10/24 00:26:49;;;;;;;10.20;5.40;;;;;;;;;;5136083;27;20042;-78
2022/10/24 00:29:35;;;;;;;8.10;5.00;;;;;;;;;;5136174;27;20372;-77
2022/10/24 00:32:21;;;;;;;10.15;5.30;;;;;;;;;;5121709;27;20027;-78
2022/10/24 00:35:06;;;;;;;11.95;5.53;;;;;;;;;;5135014;27;20365;-78
2022/10/24 00:37:52;;;;;;;6.78;5.03;;;;;;;;;;5121599;27;20066;-78
2022/10/24 00:40:38;;;;;;;8.70;4.90;;;;;;;;;;5135687;27;20011;-77
2022/10/24 00:43:24;;;;;;;7.13;5.10;;;;;;;;;;5135732;27;20066;-78
2022/10/24 00:46:10;;;;;;;7.05;4.70;;;;;;;;;;5135952;27;20110;-77
2022/10/24 00:48:55;;;;;;;7.63;4.93;;;;;;;;;;5135480;27;20505;-77
2022/10/24 00:51:41;;;;;;;5.90;4.82;;;;;;;;;;5136553;27;20033;-76
2022/10/24 00:54:27;;;;;;;8.85;4.68;;;;;;;;;;5121003;27;20011;-78
2022/10/24 00:57:34;;;;;;;8.35;4.70;;;;;;;;;;5135237;27;20168;-78
2022/10/24 01:00:22;;;;;;;7.55;4.43;;;;;;;;;;5121804;27;20069;-78
2022/10/24 01:03:10;;;;;;;5.85;4.53;;;;;;;;;;5136241;27;20459;-77
2022/10/24 01:06:13;;;;;;;6.47;4.90;;;;;;;;;;5121212;27;20035;-78
2022/10/24 01:09:13;;;;;;;6.10;4.38;;;;;;;;;;5135588;28;20034;-78
2022/10/24 01:12:07;;;;;;;7.78;5.22;;;;;;;;;;5135385;28;20467;-77
2022/10/24 01:14:58;;;;;;;9.30;5.15;;;;;;;;;;5135478;28;20345;-79
2022/10/24 01:17:47;;;;;;;7.78;5.47;;;;;;;;;;5135487;28;20402;-78
2022/10/24 01:20:51;;;;;;;10.95;5.20;;;;;;;;;;5135128;28;20047;-77
2022/10/24 01:23:55;;;;;;;9.43;4.80;;;;;;;;;;5134500;28;20016;-77
2022/10/24 01:26:44;;;;;;;7.95;5.30;;;;;;;;;;5135609;28;20018;-78
2022/10/24 01:29:35;;;;;;;6.65;4.85;;;;;;;;;;5135238;28;20106;-78
2022/10/24 01:32:21;;;;;;;10.13;6.10;;;;;;;;;;5135397;28;20030;-78
2022/10/24 01:35:22;;;;;;;8.88;5.72;;;;;;;;;;5134719;28;20353;-78
2022/10/24 01:38:27;;;;;;;8.15;5.85;;;;;;;;;;5135124;28;20183;-78
2022/10/24 01:41:16;;;;;;;9.30;6.15;;;;;;;;;;5121322;27;20072;-78
2022/10/24 01:44:04;;;;;;;7.80;6.03;;;;;;;;;;5140010;27;20038;-77
2022/10/24 01:46:53;;;;;;;7.57;5.47;;;;;;;;;;5139655;27;20422;-78
2022/10/24 01:49:41;;;;;;;9.77;5.97;;;;;;;;;;5124369;27;20055;-74
2022/10/24 01:52:28;;;;;;;11.82;6.25;;;;;;;;;;5138948;27;20048;-75
2022/10/24 01:55:14;;;;;;;8.90;5.80;;;;;;;;;;5138771;27;20035;-75
2022/10/24 01:58:00;;;;;;;7.75;5.97;;;;;;;;;;5139509;27;20033;-75
2022/10/24 02:00:46;;;;;;;8.88;6.18;;;;;;;;;;5138640;27;20019;-74
2022/10/24 02:03:35;;;;;;;11.30;6.20;;;;;;;;;;5139119;27;20080;-74
2022/10/24 02:06:24;;;;;;;11.15;6.22;;;;;;;;;;5137805;27;20023;-73
2022/10/24 02:09:13;;;;;;;12.55;6.63;;;;;;;;;;5138143;27;20019;-73
2022/10/24 02:11:59;;;;;;;11.90;7.30;;;;;;;;;;5123729;27;20025;-74
2022/10/24 02:14:50;;;;;;;9.30;6.45;;;;;;;;;;5138001;27;20038;-74
2022/10/24 02:17:35;;;;;;;9.93;6.65;;;;;;;;;;5138519;27;20019;-73
2022/10/24 02:20:26;;;;;;;12.48;6.88;;;;;;;;;;5138528;27;20071;-74
2022/10/24 02:23:19;;;;;;;14.00;7.28;;;;;;;;;;5137978;27;20079;-73
2022/10/24 02:26:07;;;;;;;11.57;7.43;;;;;;;;;;5138765;27;20019;-73
2022/10/24 02:28:57;;;;;;;12.20;6.97;;;;;;;;;;5137991;27;20080;-74
2022/10/24 02:31:47;;;;;;;19.65;7.88;;;;;;;;;;5123261;27;20029;-74
2022/10/24 02:34:33;;;;;;;15.02;7.95;;;;;;;;;;5138331;27;20015;-73
2022/10/24 02:37:19;;;;;;;15.65;8.80;;;;;;;;;;5137566;27;20118;-73
2022/10/24 02:40:06;;;;;;;16.08;9.48;;;;;;;;;;5123849;27;20020;-72
2022/10/24 02:42:53;;;;;;;14.60;8.50;;;;;;;;;;5123953;27;20031;-73
2022/10/24 02:45:38;;;;;;;14.15;7.45;;;;;;;;;;5122327;27;20019;-74
2022/10/24 02:48:27;;;;;;;13.38;7.55;;;;;;;;;;5137602;27;20023;-73
2022/10/24 02:51:13;;;;;;;11.68;7.10;;;;;;;;;;5137518;27;20031;-74
2022/10/24 02:54:00;;;;;;;14.75;8.48;;;;;;;;;;5137175;27;20064;-74
2022/10/24 02:56:50;;;;;;;11.48;7.88;;;;;;;;;;5137226;27;20103;-74
2022/10/24 02:59:36;;;;;;;15.73;8.82;;;;;;;;;;5137285;27;20098;-73
2022/10/24 03:02:22;;;;;;;21.42;11.10;;;;;;;;;;5122574;27;20067;-74
2022/10/24 03:05:07;;;;;;;30.48;12.07;;;;;;;;;;5136675;27;20019;-74
2022/10/24 03:07:53;;;;;;;23.75;11.50;;;;;;;;;;5135683;27;20042;-73
2022/10/24 03:10:39;;;;;;;25.17;10.80;;;;;;;;;;5136054;27;20351;-74
2022/10/24 03:13:24;;;;;;;24.67;11.00;;;;;;;;;;5137540;27;20015;-73
2022/10/24 03:16:10;;;;;;;17.75;9.98;;;;;;;;;;5135791;27;20047;-74
2022/10/24 03:18:55;;;;;;;20.55;9.30;;;;;;;;;;5136868;27;20080;-74
2022/10/24 03:21:41;;;;;;;13.90;8.40;;;;;;;;;;5137231;27;20452;-74
2022/10/24 03:24:27;;;;;;;13.93;8.98;;;;;;;;;;5137030;27;20023;-74
2022/10/24 03:27:12;;;;;;;19.00;8.65;;;;;;;;;;5136873;27;20015;-73
2022/10/24 03:29:58;;;;;;;19.33;8.52;;;;;;;;;;5136352;27;20412;-74
2022/10/24 03:32:44;;;;;;;15.55;9.25;;;;;;;;;;5136473;27;20094;-74
2022/10/24 03:35:29;;;;;;;14.63;8.98;;;;;;;;;;5138327;27;20019;-74
2022/10/24 03:38:15;;;;;;;17.60;9.48;;;;;;;;;;5136747;27;20082;-74
2022/10/24 03:41:00;;;;;;;14.65;9.52;;;;;;;;;;5121442;27;20031;-74
2022/10/24 03:43:46;;;;;;;14.05;8.75;;;;;;;;;;5135873;27;20050;-73
2022/10/24 03:46:32;;;;;;;15.73;9.50;;;;;;;;;;5121233;27;20019;-74
2022/10/24 03:49:17;;;;;;;17.73;9.65;;;;;;;;;;5136579;27;20047;-73
2022/10/24 03:52:03;;;;;;;18.02;10.70;;;;;;;;;;5136965;27;20015;-74
2022/10/24 03:54:48;;;;;;;16.33;9.68;;;;;;;;;;5135545;27;20132;-74
2022/10/24 03:57:34;;;;;;;16.15;8.90;;;;;;;;;;5136038;27;20027;-73
2022/10/24 04:00:20;;;;;;;18.30;9.85;;;;;;;;;;5136231;27;20023;-73
2022/10/24 04:03:06;;;;;;;21.35;12.10;;;;;;;;;;5121147;27;20076;-74
2022/10/24 04:05:52;;;;;;;23.35;12.27;;;;;;;;;;5135247;27;20111;-74
2022/10/24 04:08:37;;;;;;;30.35;13.48;;;;;;;;;;5135390;27;20310;-75
2022/10/24 04:11:23;;;;;;;25.55;12.00;;;;;;;;;;5136382;27;20087;-73
2022/10/24 04:14:09;;;;;;;22.80;11.15;;;;;;;;;;5135707;27;20030;-73
2022/10/24 04:16:55;;;;;;;27.95;12.13;;;;;;;;;;5135685;27;20105;-74
2022/10/24 04:19:40;;;;;;;30.33;12.50;;;;;;;;;;5135898;27;20019;-74
2022/10/24 04:22:26;;;;;;;25.15;12.05;;;;;;;;;;5134691;27;20029;-74
2022/10/24 04:25:12;;;;;;;23.77;11.77;;;;;;;;;;5136035;27;20075;-75
2022/10/24 04:27:57;;;;;;;24.45;12.43;;;;;;;;;;5135989;27;20023;-75
2022/10/24 04:30:43;;;;;;;27.40;12.75;;;;;;;;;;5135693;27;20164;-74
2022/10/24 04:33:28;;;;;;;28.27;12.65;;;;;;;;;;5134631;27;20456;-74
2022/10/24 04:36:14;;;;;;;33.55;13.23;;;;;;;;;;5134051;27;20023;-74
2022/10/24 04:39:00;;;;;;;28.10;12.90;;;;;;;;;;5134268;27;20083;-74
2022/10/24 04:41:45;;;;;;;28.58;13.65;;;;;;;;;;5121042;27;20022;-75
2022/10/24 04:44:31;;;;;;;28.15;12.35;;;;;;;;;;5119951;27;20046;-75
2022/10/24 04:47:17;;;;;;;33.80;13.88;;;;;;;;;;5135461;27;20026;-74
2022/10/24 04:50:03;;;;;;;30.10;13.57;;;;;;;;;;5119919;27;20054;-73
2022/10/24 04:52:48;;;;;;;26.42;13.32;;;;;;;;;;5134157;27;20042;-74
2022/10/24 04:55:34;;;;;;;33.83;15.07;;;;;;;;;;5134996;27;20023;-74
2022/10/24 04:58:20;;;;;;;32.97;15.73;;;;;;;;;;5135138;27;20124;-75
2022/10/24 05:01:06;;;;;;;37.95;15.68;;;;;;;;;;5134553;27;20026;-74
2022/10/24 05:03:51;;;;;;;27.08;15.00;;;;;;;;;;5133968;27;20098;-74
2022/10/24 05:06:37;;;;;;;35.58;15.23;;;;;;;;;;5135231;27;20042;-75
2022/10/24 05:09:23;;;;;;;35.33;14.75;;;;;;;;;;5118943;28;20027;-75
2022/10/24 05:12:08;;;;;;;31.45;15.32;;;;;;;;;;5120800;28;20034;-74
2022/10/24 05:14:54;;;;;;;34.22;14.45;;;;;;;;;;5135011;28;20026;-75
2022/10/24 05:17:39;;;;;;;39.83;14.75;;;;;;;;;;5138123;27;20031;-74
2022/10/24 05:20:25;;;;;;;45.17;15.73;;;;;;;;;;5138706;27;20011;-75
2022/10/24 05:23:11;;;;;;;35.72;15.73;;;;;;;;;;5138331;27;20091;-76
2022/10/24 05:25:56;;;;;;;39.33;16.27;;;;;;;;;;5138646;27;20545;-77
2022/10/24 05:28:42;;;;;;;31.40;16.65;;;;;;;;;;5138641;27;20065;-72
2022/10/24 05:31:27;;;;;;;33.50;17.63;;;;;;;;;;5138383;27;20082;-74
2022/10/24 05:34:13;;;;;;;36.67;16.48;;;;;;;;;;5138659;27;20091;-77
2022/10/24 05:36:58;;;;;;;37.25;16.52;;;;;;;;;;5138046;27;20050;-74
2022/10/24 05:39:44;;;;;;;46.22;16.23;;;;;;;;;;5139023;27;20016;-74
2022/10/24 05:42:30;;;;;;;36.08;13.90;;;;;;;;;;5138351;27;20473;-76
2022/10/24 05:45:15;;;;;;;26.98;12.93;;;;;;;;;;5137907;27;20030;-76
2022/10/24 05:48:01;;;;;;;27.90;12.85;;;;;;;;;;5139746;27;20102;-76
2022/10/24 05:50:46;;;;;;;19.08;11.43;;;;;;;;;;5124745;27;20023;-76
2022/10/24 05:53:32;;;;;;;19.23;9.77;;;;;;;;;;5137387;27;20051;-75
2022/10/24 05:56:20;;;;;;;17.10;9.80;;;;;;;;;;5139006;27;20028;-75
2022/10/24 05:59:05;;;;;;;17.67;10.32;;;;;;;;;;5138828;27;20024;-75
2022/10/24 06:01:51;;;;;;;20.38;12.00;;;;;;;;;;5138065;27;20019;-75
2022/10/24 06:04:37;;;;;;;29.02;11.88;;;;;;;;;;5124030;27;20115;-77
2022/10/24 06:07:22;;;;;;;21.15;12.50;;;;;;;;;;5137474;27;20016;-76
2022/10/24 06:10:08;;;;;;;21.10;12.13;;;;;;;;;;5137823;27;20459;-74
2022/10/24 06:12:54;;;;;;;22.63;12.50;;;;;;;;;;5137181;27;20045;-76
2022/10/24 06:15:40;;;;;;;26.20;12.80;;;;;;;;;;5137681;27;20436;-74
2022/10/24 06:18:26;;;;;;;25.98;13.63;;;;;;;;;;5123602;27;20019;-75
2022/10/24 06:21:14;;;;;;;29.23;14.00;;;;;;;;;;5137082;27;20053;-74
2022/10/24 06:23:59;;;;;;;27.80;14.50;;;;;;;;;;5137640;27;20445;-75
2022/10/24 06:26:45;;;;;;;21.30;14.32;;;;;;;;;;5123407;27;20027;-74
2022/10/24 06:29:31;;;;;;;25.10;14.15;;;;;;;;;;5137214;27;20341;-74
2022/10/24 06:32:17;;;;;;;22.05;13.15;;;;;;;;;;5137020;27;20023;-75
2022/10/24 06:35:02;;;;;;;21.27;12.95;;;;;;;;;;5136869;27;20034;-75
2022/10/24 06:37:48;;;;;;;21.45;12.60;;;;;;;;;;5136311;27;20035;-75
2022/10/24 06:40:36;;;;;;;18.30;11.63;;;;;;;;;;5137129;27;20019;-74
2022/10/24 06:43:21;;;;;;;23.02;12.20;;;;;;;;;;5137195;27;20080;-74
2022/10/24 06:46:08;;;;;;;21.60;13.20;;;;;;;;;;5143688;27;20031;-74
2022/10/24 06:48:54;;;;;;;20.15;12.80;;;;;;;;;;5136985;27;20023;-75
2022/10/24 06:51:40;;;;;;;23.83;12.95;;;;;;;;;;5136724;27;20034;-75
2022/10/24 06:54:25;;;;;;;20.92;12.70;;;;;;;;;;5140544;27;20030;-74
2022/10/24 06:57:11;;;;;;;20.88;12.40;;;;;;;;;;5136612;27;20448;-75
2022/10/24 06:59:57;;;;;;;21.42;12.45;;;;;;;;;;5136120;27;20352;-73
2022/10/24 07:02:42;;;;;;;22.63;13.02;;;;;;;;;;5138257;27;20015;-74
2022/10/24 07:05:28;;;;;;;21.98;14.25;;;;;;;;;;5140242;27;20023;-78
2022/10/24 07:08:13;;;;;;;22.05;14.43;;;;;;;;;;5126559;27;20106;-76
2022/10/24 07:10:59;;;;;;;23.80;14.10;;;;;;;;;;5137197;27;20027;-77
2022/10/24 07:13:45;;;;;;;22.42;12.73;;;;;;;;;;5137994;27;20426;-74
2022/10/24 07:16:30;;;;;;;21.77;13.82;;;;;;;;;;5138762;27;20023;-75
2022/10/24 07:19:16;;;;;;;20.25;11.75;;;;;;;;;;5137609;27;20019;-76
2022/10/24 07:22:02;;;;;;;18.42;12.40;;;;;;;;;;5120791;27;20027;-76
2022/10/24 07:24:54;;;;;;;21.90;11.65;;;;;;;;;;5137131;27;20061;-75
2022/10/24 07:27:40;;;;;;;17.50;11.23;;;;;;;;;;5135587;27;20510;-77
2022/10/24 07:30:25;;;;;;;22.25;10.85;;;;;;;;;;5121775;27;20102;-75
2022/10/24 07:33:11;;;;;;;19.90;10.77;;;;;;;;;;5137379;27;20015;-76
2022/10/24 07:35:56;;;;;;;16.95;10.05;;;;;;;;;;5121741;27;20034;-77
2022/10/24 07:38:43;;;;;;;13.52;7.95;;;;;;;;;;5122531;27;20046;-77
2022/10/24 07:41:29;;;;;;;11.05;6.38;;;;;;;;;;5137913;27;20453;-77
2022/10/24 07:44:15;;;;;;;12.38;6.65;;;;;;;;;;5137119;27;20027;-75
2022/10/24 07:47:05;;;;;;;10.35;5.90;;;;;;;;;;5136702;27;20026;-77
2022/10/24 07:49:51;;;;;;;10.48;6.47;;;;;;;;;;5137569;27;20038;-76
2022/10/24 07:52:36;;;;;;;32.30;15.20;;;;;;;;;;5136895;27;20026;-77
2022/10/24 07:55:22;;;;;;;11.63;6.47;;;;;;;;;;5135340;27;20172;-76
2022/10/24 07:58:08;;;;;;;10.20;6.10;;;;;;;;;;5121534;27;20372;-76
2022/10/24 08:00:53;;;;;;;10.80;6.40;;;;;;;;;;5136959;27;20011;-75
2022/10/24 08:03:39;;;;;;;10.93;6.25;;;;;;;;;;5136818;27;20030;-76
2022/10/24 08:06:28;;;;;;;9.82;6.03;;;;;;;;;;5137195;27;20019;-77
2022/10/24 08:09:13;;;;;;;13.35;5.95;;;;;;;;;;5138015;27;20102;-76
2022/10/24 08:11:59;;;;;;;12.55;6.15;;;;;;;;;;5136592;27;20375;-76
2022/10/24 08:14:45;;;;;;;15.27;5.80;;;;;;;;;;5136585;27;20108;-75
2022/10/24 08:17:30;;;;;;;11.07;5.70;;;;;;;;;;5122175;27;20083;-76
2022/10/24 08:20:16;;;;;;;9.88;5.13;;;;;;;;;;5137375;27;20046;-76
2022/10/24 08:23:01;;;;;;;7.20;5.10;;;;;;;;;;5139431;27;20167;-75
2022/10/24 08:25:47;;;;;;;7.82;4.65;;;;;;;;;;5136509;27;20037;-76
2022/10/24 08:28:33;;;;;;;6.88;4.53;;;;;;;;;;5135639;27;20110;-76
2022/10/24 08:31:19;;;;;;;9.27;4.95;;;;;;;;;;5120553;27;20033;-76
2022/10/24 08:34:05;;;;;;;7.85;4.88;;;;;;;;;;5121563;27;20027;-77
2022/10/24 08:36:51;;;;;;;7.35;4.53;;;;;;;;;;5135331;27;20050;-77
2022/10/24 08:39:37;;;;;;;20.13;11.30;;;;;;;;;;5135789;27;20352;-76
2022/10/24 08:42:23;;;;;;;8.45;5.10;;;;;;;;;;5134527;27;20026;-75
2022/10/24 08:45:15;;;;;;;9.80;4.80;;;;;;;;;;5135501;27;20110;-76
2022/10/24 08:48:07;;;;;;;7.75;4.50;;;;;;;;;;5135169;27;20019;-74
2022/10/24 08:50:58;;;;;;;8.15;5.25;;;;;;;;;;5135222;27;20027;-73
2022/10/24 08:53:45;;;;;;;6.15;4.45;;;;;;;;;;5135572;27;20015;-73
2022/10/24 08:56:31;;;;;;;6.13;4.65;;;;;;;;;;5135811;27;20027;-75
2022/10/24 08:59:17;;;;;;;7.32;4.50;;;;;;;;;;5136088;27;20019;-74
2022/10/24 09:02:29;;;;;;;7.75;4.72;;;;;;;;;;5135986;27;20026;-76
2022/10/24 09:05:20;;;;;;;7.45;4.97;;;;;;;;;;5134519;27;20111;-75
2022/10/24 09:08:14;;;;;;;9.73;5.03;;;;;;;;;;5135779;27;20019;-74
2022/10/24 09:11:02;;;;;;;7.05;4.63;;;;;;;;;;5135405;28;20106;-76
2022/10/24 09:13:47;;;;;;;6.95;5.10;;;;;;;;;;5135005;28;20087;-75
2022/10/24 09:16:34;;;;;;;7.28;4.47;;;;;;;;;;5134984;28;20042;-76
2022/10/24 09:19:21;;;;;;;6.18;3.95;;;;;;;;;;5134734;28;20026;-75
2022/10/24 09:22:10;;;;;;;7.57;4.63;;;;;;;;;;5136253;28;20106;-75
2022/10/24 09:25:04;;;;;;;8.20;5.20;;;;;;;;;;5135863;28;20444;-75
2022/10/24 09:27:50;;;;;;;5.72;4.25;;;;;;;;;;5135291;28;20055;-77
2022/10/24 09:30:36;;;;;;;6.90;4.60;;;;;;;;;;5136046;28;20460;-77
2022/10/24 09:33:25;;;;;;;6.80;4.30;;;;;;;;;;5135829;27;20023;-76
2022/10/24 09:36:12;;;;;;;7.00;4.43;;;;;;;;;;5120230;28;20030;-77
2022/10/24 09:39:13;;;;;;;8.27;4.20;;;;;;;;;;5134447;28;20023;-77
2022/10/24 09:41:59;;;;;;;8.68;4.40;;;;;;;;;;5136083;28;20117;-77
2022/10/24 09:44:45;;;;;;;8.93;5.40;;;;;;;;;;5122086;28;20023;-76
2022/10/24 09:47:33;;;;;;;8.80;4.00;;;;;;;;;;5136086;28;20441;-75
2022/10/24 09:50:19;;;;;;;5.80;4.15;;;;;;;;;;5120936;28;20019;-75
2022/10/24 09:53:05;;;;;;;6.53;4.25;;;;;;;;;;5136404;28;20088;-75
2022/10/24 09:55:53;;;;;;;4.95;3.90;;;;;;;;;;5135226;28;20027;-75
2022/10/24 09:58:39;;;;;;;4.68;3.63;;;;;;;;;;5135390;28;20023;-75
2022/10/24 10:01:24;;;;;;;5.68;4.32;;;;;;;;;;5120051;27;20088;-76
2022/10/24 10:04:17;;;;;;;8.05;3.83;;;;;;;;;;5138696;27;20047;-75
2022/10/24 10:07:13;;;;;;;4.88;3.60;;;;;;;;;;5137747;27;20118;-76
2022/10/24 10:10:01;;;;;;;4.65;3.80;;;;;;;;;;5138908;27;20026;-75
2022/10/24 10:12:54;;;;;;;8.20;3.70;;;;;;;;;;5137967;27;20019;-75
2022/10/24 10:15:42;;;;;;;5.43;3.35;;;;;;;;;;5139099;27;20055;-75
2022/10/24 10:18:41;;;;;;;7.18;3.90;;;;;;;;;;5138623;27;20080;-77
2022/10/24 10:21:27;;;;;;;4.68;3.38;;;;;;;;;;5138890;27;20149;-76
2022/10/24 10:24:22;;;;;;;5.75;3.13;;;;;;;;;;5138243;27;20015;-75
2022/10/24 10:27:20;;;;;;;5.30;3.30;;;;;;;;;;5141328;27;20038;-76
2022/10/24 10:30:15;;;;;;;3.72;3.17;;;;;;;;;;5123324;27;20027;-75
2022/10/24 10:33:16;;;;;;;6.78;3.28;;;;;;;;;;5138241;27;20023;-77
2022/10/24 10:36:18;;;;;;;4.65;3.30;;;;;;;;;;5138997;27;20037;-76
2022/10/24 10:39:15;;;;;;;6.72;3.03;;;;;;;;;;5141783;27;20410;-78
2022/10/24 10:42:30;;;;;;;4.25;3.05;;;;;;;;;;5125722;27;20023;-77
2022/10/24 10:45:48;;;;;;;5.07;3.42;;;;;;;;;;5063544;27;20019;-77
2022/10/24 10:48:49;;;;;;;6.57;3.20;;;;;;;;;;5090902;27;20042;-78
2022/10/24 10:51:37;;;;;;;4.45;3.10;;;;;;;;;;5138573;27;20061;-78
2022/10/24 10:54:23;;;;;;;5.63;3.60;;;;;;;;;;5137553;27;20030;-80
2022/10/24 10:57:23;;;;;;;5.63;3.58;;;;;;;;;;5122732;27;20027;-77
2022/10/24 11:00:14;;;;;;;9.82;5.00;;;;;;;;;;5138117;27;20526;-77
2022/10/24 11:02:59;;;;;;;6.45;4.40;;;;;;;;;;5124221;27;20023;-77
2022/10/24 11:06:00;;;;;;;6.45;3.63;;;;;;;;;;5121951;27;20019;-77
2022/10/24 11:08:45;;;;;;;4.72;3.60;;;;;;;;;;5138106;27;20431;-77
2022/10/24 11:11:34;;;;;;;4.40;3.60;;;;;;;;;;5122391;27;20020;-77
2022/10/24 11:14:29;;;;;;;7.80;4.07;;;;;;;;;;5122678;27;20054;-79
2022/10/24 11:17:17;;;;;;;5.00;3.55;;;;;;;;;;5139179;27;20077;-78
2022/10/24 11:20:14;;;;;;;10.93;6.13;;;;;;;;;;5138703;27;20042;-76
2022/10/24 11:23:08;;;;;;;9.38;5.22;;;;;;;;;;5138100;27;20026;-77
2022/10/24 11:26:02;;;;;;;6.72;4.60;;;;;;;;;;5137634;27;20110;-76
2022/10/24 11:28:48;;;;;;;7.13;3.83;;;;;;;;;;5123733;27;20034;-76
2022/10/24 11:31:42;;;;;;;6.38;4.03;;;;;;;;;;5123449;27;20080;-77
2022/10/24 11:34:34;;;;;;;9.70;4.38;;;;;;;;;;5124078;27;20027;-78
2022/10/24 11:37:23;;;;;;;9.38;4.07;;;;;;;;;;5138114;27;20043;-78
2022/10/24 11:40:11;;;;;;;5.07;3.33;;;;;;;;;;5123678;27;20019;-76
2022/10/24 11:43:18;;;;;;;7.50;3.75;;;;;;;;;;5137237;27;20415;-78
2022/10/24 11:46:11;;;;;;;5.20;3.55;;;;;;;;;;5138279;27;20459;-78
2022/10/24 11:49:16;;;;;;;6.55;4.05;;;;;;;;;;5122846;27;20030;-78
2022/10/24 11:52:13;;;;;;;13.60;4.53;;;;;;;;;;5135877;27;20470;-78
2022/10/24 11:55:06;;;;;;;6.75;4.15;;;;;;;;;;5137901;27;20050;-78
2022/10/24 11:57:56;;;;;;;5.85;3.60;;;;;;;;;;5139793;27;20084;-76
2022/10/24 12:01:03;;;;;;;8.90;4.20;;;;;;;;;;5124679;27;20031;-76
2022/10/24 12:03:50;;;;;;;6.90;4.38;;;;;;;;;;5123001;27;20015;-77
2022/10/24 12:06:54;;;;;;;5.53;3.88;;;;;;;;;;5121826;27;20015;-74
2022/10/24 12:09:55;;;;;;;5.63;3.83;;;;;;;;;;5135883;27;20026;-74
2022/10/24 12:12:40;;;;;;;7.70;4.10;;;;;;;;;;5136535;27;20022;-74
2022/10/24 12:15:45;;;;;;;6.85;3.63;;;;;;;;;;5136042;27;20115;-75
2022/10/24 12:18:39;;;;;;;6.80;4.15;;;;;;;;;;5121217;27;20034;-74
2022/10/24 12:21:27;;;;;;;7.97;3.90;;;;;;;;;;5135824;27;20093;-75
2022/10/24 12:24:29;;;;;;;7.45;4.10;;;;;;;;;;5121599;27;20452;-75
2022/10/24 12:27:20;;;;;;;9.23;3.90;;;;;;;;;;5121302;27;20210;-75
2022/10/24 12:30:09;;;;;;;5.03;3.55;;;;;;;;;;5135329;27;20019;-76
2022/10/24 12:32:54;;;;;;;6.65;4.40;;;;;;;;;;5135927;27;20073;-75
2022/10/24 12:35:43;;;;;;;6.22;5.35;;;;;;;;;;5136878;27;20047;-78
2022/10/24 12:38:28;;;;;;;4.90;3.78;;;;;;;;;;5135742;27;20375;-77
2022/10/24 12:41:32;;;;;;;6.72;3.72;;;;;;;;;;5121376;27;20176;-77
2022/10/24 12:44:36;;;;;;;5.97;3.60;;;;;;;;;;5137219;27;20106;-77
2022/10/24 12:47:32;;;;;;;6.68;3.55;;;;;;;;;;5136163;27;20023;-76
2022/10/24 12:50:21;;;;;;;7.07;3.90;;;;;;;;;;5121593;27;20023;-73
2022/10/24 12:53:17;;;;;;;5.53;3.80;;;;;;;;;;5135254;27;20019;-72
2022/10/24 12:56:07;;;;;;;5.43;3.38;;;;;;;;;;5135688;27;20034;-73
2022/10/24 12:59:22;;;;;;;6.32;3.25;;;;;;;;;;5134343;27;20021;-73
2022/10/24 13:02:13;;;;;;;7.90;3.67;;;;;;;;;;5114108;27;20088;-73
2022/10/24 13:04:59;;;;;;;6.28;3.42;;;;;;;;;;5134904;27;20015;-73
2022/10/24 13:07:51;;;;;;;7.20;4.15;;;;;;;;;;5134247;27;20493;-72
2022/10/24 13:10:50;;;;;;;8.15;3.58;;;;;;;;;;5119961;28;20027;-74
2022/10/24 13:13:52;;;;;;;4.75;2.78;;;;;;;;;;5135155;28;20445;-72
2022/10/24 13:16:49;;;;;;;5.22;2.95;;;;;;;;;;5135655;27;20114;-72
2022/10/24 13:19:35;;;;;;;4.65;3.08;;;;;;;;;;5135457;28;20072;-73
2022/10/24 13:22:26;;;;;;;4.90;2.60;;;;;;;;;;5136347;28;20019;-73
2022/10/24 13:25:19;;;;;;;6.38;3.00;;;;;;;;;;5140888;28;20023;-73
2022/10/24 13:28:23;;;;;;;5.25;2.85;;;;;;;;;;5138116;28;20076;-73
2022/10/24 13:31:15;;;;;;;5.78;3.22;;;;;;;;;;5135160;28;20417;-72
2022/10/24 13:34:27;;;;;;;6.35;3.35;;;;;;;;;;5136334;28;20038;-73
2022/10/24 13:37:20;;;;;;;5.15;3.10;;;;;;;;;;5114799;27;20504;-73
2022/10/24 13:40:26;;;;;;;5.65;3.20;;;;;;;;;;5138583;27;20059;-72
2022/10/24 13:43:18;;;;;;;5.20;3.03;;;;;;;;;;5136661;27;20077;-74
2022/10/24 13:46:07;;;;;;;4.53;2.88;;;;;;;;;;5139662;27;20050;-74
2022/10/24 13:48:53;;;;;;;6.18;3.35;;;;;;;;;;5138971;27;20081;-73
2022/10/24 13:51:44;;;;;;;4.70;3.15;;;;;;;;;;5139225;27;20007;-73
2022/10/24 13:54:32;;;;;;;7.95;3.42;;;;;;;;;;5124536;27;20076;-74
2022/10/24 13:57:28;;;;;;;7.20;4.03;;;;;;;;;;5124415;27;20038;-73
2022/10/24 14:00:18;;;;;;;8.88;4.00;;;;;;;;;;5138143;27;20171;-74
2022/10/24 14:03:10;;;;;;;6.32;3.63;;;;;;;;;;5124212;27;20011;-73
2022/10/24 14:06:07;;;;;;;6.95;3.33;;;;;;;;;;5138555;27;20106;-74
2022/10/24 14:08:54;;;;;;;5.00;3.00;;;;;;;;;;5150683;27;20014;-75
2022/10/24 14:11:41;;;;;;;8.27;3.42;;;;;;;;;;5145558;27;20368;-73
2022/10/24 14:14:26;;;;;;;7.07;3.25;;;;;;;;;;5139072;27;20079;-74
2022/10/24 14:17:17;;;;;;;7.65;3.47;;;;;;;;;;5125870;27;20031;-74
2022/10/24 14:20:08;;;;;;;5.90;3.33;;;;;;;;;;5139446;27;20011;-73
2022/10/24 14:22:54;;;;;;;5.47;3.63;;;;;;;;;;5138133;27;20047;-73
2022/10/24 14:25:39;;;;;;;7.30;3.50;;;;;;;;;;5123690;27;20026;-72
2022/10/24 14:28:27;;;;;;;11.95;4.35;;;;;;;;;;5138947;27;20027;-74
2022/10/24 14:31:26;;;;;;;7.03;4.00;;;;;;;;;;5138410;27;20019;-75
2022/10/24 14:34:18;;;;;;;7.13;3.83;;;;;;;;;;5138170;27;20034;-74
2022/10/24 14:37:06;;;;;;;9.02;4.18;;;;;;;;;;5137924;27;20388;-74
2022/10/24 14:39:52;;;;;;;8.10;5.47;;;;;;;;;;5138625;27;20062;-74
2022/10/24 14:42:37;;;;;;;10.57;4.97;;;;;;;;;;5124015;27;20027;-75
2022/10/24 14:45:28;;;;;;;11.70;4.53;;;;;;;;;;5137196;27;20438;-75
2022/10/24 14:48:22;;;;;;;11.57;5.00;;;;;;;;;;5137870;27;20042;-74
2022/10/24 14:51:26;;;;;;;8.38;4.25;;;;;;;;;;5137618;27;20019;-74
2022/10/24 14:54:20;;;;;;;8.93;4.95;;;;;;;;;;5137204;27;20038;-73
2022/10/24 14:57:13;;;;;;;9.43;5.60;;;;;;;;;;5137630;27;20027;-75
2022/10/24 15:00:05;;;;;;;11.68;6.55;;;;;;;;;;5137645;27;20019;-74
2022/10/24 15:02:53;;;;;;;9.02;6.20;;;;;;;;;;5137865;27;20034;-74
2022/10/24 15:05:40;;;;;;;18.58;6.55;;;;;;;;;;5137370;27;20035;-74
2022/10/24 15:08:35;;;;;;;13.48;6.85;;;;;;;;;;5138016;27;20015;-74
2022/10/24 15:11:26;;;;;;;18.42;8.80;;;;;;;;;;5123760;27;20023;-74
2022/10/24 15:14:31;;;;;;;20.20;8.77;;;;;;;;;;5137008;27;20110;-74
2022/10/24 15:17:21;;;;;;;17.10;7.75;;;;;;;;;;5137082;27;20023;-74
2022/10/24 15:20:11;;;;;;;17.25;7.85;;;;;;;;;;5123459;27;20494;-74
2022/10/24 15:22:58;;;;;;;14.50;6.72;;;;;;;;;;5137282;27;20030;-75
2022/10/24 15:25:43;;;;;;;14.48;7.75;;;;;;;;;;5137189;27;20046;-75
2022/10/24 15:28:44;;;;;;;15.98;7.15;;;;;;;;;;5137708;27;20019;-75
2022/10/24 15:31:33;;;;;;;13.85;7.55;;;;;;;;;;5137053;27;20157;-73
2022/10/24 15:34:21;;;;;;;19.13;9.27;;;;;;;;;;5136920;27;20023;-75
2022/10/24 15:37:14;;;;;;;19.42;10.30;;;;;;;;;;5136837;27;20039;-74
2022/10/24 15:40:29;;;;;;;30.77;12.80;;;;;;;;;;5135850;27;20026;-74
2022/10/24 15:43:16;;;;;;;33.17;12.93;;;;;;;;;;5117657;27;20061;-74
2022/10/24 15:46:02;;;;;;;30.90;11.63;;;;;;;;;;5135600;27;20446;-74
2022/10/24 15:48:48;;;;;;;27.23;13.02;;;;;;;;;;5134957;27;20397;-74
2022/10/24 15:51:35;;;;;;;31.08;12.93;;;;;;;;;;5136171;27;20038;-75
2022/10/24 15:54:21;;;;;;;27.27;12.75;;;;;;;;;;5135520;27;20023;-76
2022/10/24 15:57:11;;;;;;;26.15;12.43;;;;;;;;;;5120706;27;20061;-74
2022/10/24 15:59:56;;;;;;;28.05;11.63;;;;;;;;;;5134255;27;20062;-74
2022/10/24 16:02:44;;;;;;;25.52;12.00;;;;;;;;;;5135569;27;20015;-74
2022/10/24 16:05:34;;;;;;;31.58;12.90;;;;;;;;;;5135517;27;20080;-74
2022/10/24 16:08:20;;;;;;;38.42;12.38;;;;;;;;;;5134859;27;20059;-74
2022/10/24 16:11:08;;;;;;;27.58;10.48;;;;;;;;;;5134963;27;20031;-73
2022/10/24 16:13:54;;;;;;;24.08;11.15;;;;;;;;;;5135173;27;20392;-72
2022/10/24 16:16:40;;;;;;;29.50;12.18;;;;;;;;;;5134984;27;20015;-76
2022/10/24 16:19:26;;;;;;;24.88;10.93;;;;;;;;;;5136331;27;20098;-73
2022/10/24 16:22:14;;;;;;;30.13;11.65;;;;;;;;;;5136562;27;20030;-74
2022/10/24 16:24:59;;;;;;;26.20;12.43;;;;;;;;;;5134595;27;20437;-74
2022/10/24 16:27:47;;;;;;;31.33;12.98;;;;;;;;;;5121560;27;20015;-74
2022/10/24 16:30:33;;;;;;;30.42;12.68;;;;;;;;;;5135671;27;20038;-74
2022/10/24 16:33:21;;;;;;;33.88;12.65;;;;;;;;;;5134613;27;20106;-73
2022/10/24 16:36:06;;;;;;;30.63;12.50;;;;;;;;;;5134811;27;20506;-74
2022/10/24 16:38:52;;;;;;;31.52;12.23;;;;;;;;;;5121107;27;20415;-75
2022/10/24 16:41:44;;;;;;;35.38;12.95;;;;;;;;;;5135076;27;20030;-74
2022/10/24 16:44:32;;;;;;;29.63;12.77;;;;;;;;;;5134821;27;20016;-73